Time;durP1;ratioP1;P1;durP2;ratioP2;P2;SDS_P1;SDS_P2;PMS_P1;PMS_P2;Temp;Humidity;BMP_temperature;BMP_pressure;BME280_temperature;BME280_humidity;BME280_pressure;Samples;Min_cycle;Max_cycle;Signal;HPM_P1;HPM_P2
2021/03/17 00:01:43;;;;;;;6.20;1.33;;;;;;;;;;5010608;28;20044;-54
2021/03/17 00:04:09;;;;;;;7.40;1.50;;;;;;;;;;5030372;28;20582;-56
2021/03/17 00:06:35;;;;;;;8.43;1.38;;;;;;;;;;5027224;28;20044;-58
2021/03/17 00:09:01;;;;;;;12.00;1.40;;;;;;;;;;5029194;28;20048;-57
2021/03/17 00:11:27;;;;;;;6.50;1.13;;;;;;;;;;5029413;28;21690;-57
2021/03/17 00:13:53;;;;;;;6.85;1.38;;;;;;;;;;5029277;28;20052;-61
2021/03/17 00:16:19;;;;;;;6.50;1.50;;;;;;;;;;5028066;28;20131;-57
2021/03/17 00:18:44;;;;;;;9.15;1.40;;;;;;;;;;5029007;28;20147;-58
2021/03/17 00:21:10;;;;;;;6.93;1.35;;;;;;;;;;5033849;28;20037;-58
2021/03/17 00:23:36;;;;;;;10.02;1.42;;;;;;;;;;5032035;28;20115;-58
2021/03/17 00:26:02;;;;;;;10.25;1.60;;;;;;;;;;5030955;28;20063;-57
2021/03/17 00:28:28;;;;;;;9.13;1.88;;;;;;;;;;5031277;28;20140;-57
2021/03/17 00:30:54;;;;;;;11.50;1.27;;;;;;;;;;5032902;28;20379;-58
2021/03/17 00:33:20;;;;;;;9.18;1.50;;;;;;;;;;5034073;28;20139;-58
2021/03/17 00:35:47;;;;;;;12.82;2.05;;;;;;;;;;5033450;28;20133;-58
2021/03/17 00:38:12;;;;;;;6.03;1.40;;;;;;;;;;5034440;28;20037;-58
2021/03/17 00:40:38;;;;;;;6.55;1.35;;;;;;;;;;5034690;28;20052;-54
2021/03/17 00:43:04;;;;;;;7.32;1.70;;;;;;;;;;5035599;28;20048;-55
2021/03/17 00:45:30;;;;;;;9.75;1.80;;;;;;;;;;5031499;28;20068;-58
2021/03/17 00:47:56;;;;;;;5.47;1.50;;;;;;;;;;5032021;28;20076;-57
2021/03/17 00:50:22;;;;;;;5.55;1.98;;;;;;;;;;5031879;28;20120;-57
2021/03/17 00:52:48;;;;;;;4.53;1.33;;;;;;;;;;5032615;28;20056;-57
2021/03/17 00:55:14;;;;;;;8.05;1.25;;;;;;;;;;5034215;28;20032;-58
2021/03/17 00:57:40;;;;;;;21.90;1.98;;;;;;;;;;5033451;28;20072;-57
2021/03/17 01:00:07;;;;;;;13.55;1.60;;;;;;;;;;5013820;28;20045;-59
2021/03/17 01:02:33;;;;;;;8.20;1.50;;;;;;;;;;5002309;28;20037;-57
2021/03/17 01:04:59;;;;;;;12.05;1.70;;;;;;;;;;5029718;28;20802;-57
2021/03/17 01:07:25;;;;;;;7.60;1.58;;;;;;;;;;5031248;28;20046;-58
2021/03/17 01:09:54;;;;;;;7.95;1.27;;;;;;;;;;5030653;28;20044;-57
2021/03/17 01:12:20;;;;;;;7.18;1.60;;;;;;;;;;5032049;28;20055;-57
2021/03/17 01:14:46;;;;;;;8.93;1.58;;;;;;;;;;5032226;28;20049;-56
2021/03/17 01:17:12;;;;;;;9.65;2.42;;;;;;;;;;5032770;28;20120;-58
2021/03/17 01:19:38;;;;;;;11.00;2.00;;;;;;;;;;5032073;28;21145;-57
2021/03/17 01:22:04;;;;;;;18.15;2.47;;;;;;;;;;5030721;28;20048;-55
2021/03/17 01:24:30;;;;;;;8.00;1.45;;;;;;;;;;5028872;28;20065;-58
2021/03/17 01:26:56;;;;;;;8.65;1.80;;;;;;;;;;5030436;28;20080;-58
2021/03/17 01:29:23;;;;;;;18.83;1.90;;;;;;;;;;5029816;28;20509;-58
2021/03/17 01:31:49;;;;;;;13.32;1.38;;;;;;;;;;5027250;28;21997;-57
2021/03/17 01:34:15;;;;;;;15.13;1.95;;;;;;;;;;5032943;28;20128;-60
2021/03/17 01:36:41;;;;;;;28.25;3.00;;;;;;;;;;5031684;28;20041;-58
2021/03/17 01:39:07;;;;;;;43.65;3.88;;;;;;;;;;5029751;28;20115;-59
2021/03/17 01:41:34;;;;;;;35.25;3.00;;;;;;;;;;5028479;28;20157;-58
2021/03/17 01:44:00;;;;;;;74.25;4.85;;;;;;;;;;5029678;28;20382;-59
2021/03/17 01:46:26;;;;;;;32.63;3.20;;;;;;;;;;5028078;28;20046;-58
2021/03/17 01:48:52;;;;;;;21.80;2.90;;;;;;;;;;5029877;28;20048;-57
2021/03/17 01:51:18;;;;;;;17.88;3.08;;;;;;;;;;5031393;28;20465;-57
2021/03/17 01:53:44;;;;;;;39.10;4.40;;;;;;;;;;5025449;28;20090;-58
2021/03/17 01:56:10;;;;;;;23.65;3.92;;;;;;;;;;5008837;28;20478;-58
2021/03/17 01:58:36;;;;;;;19.15;4.13;;;;;;;;;;5028351;28;20076;-59
2021/03/17 02:01:03;;;;;;;22.67;3.22;;;;;;;;;;5028909;28;20036;-57
2021/03/17 02:03:29;;;;;;;27.13;2.85;;;;;;;;;;5029769;28;20122;-57
2021/03/17 02:05:55;;;;;;;45.13;4.70;;;;;;;;;;5023701;28;20155;-57
2021/03/17 02:08:27;;;;;;;69.40;4.88;;;;;;;;;;5033002;28;20041;-57
2021/03/17 02:10:53;;;;;;;47.47;4.15;;;;;;;;;;5033190;28;20510;-57
2021/03/17 02:13:25;;;;;;;23.23;3.33;;;;;;;;;;5030055;28;20076;-54
2021/03/17 02:16:09;;;;;;;28.27;5.38;;;;;;;;;;5031414;28;20091;-57
2021/03/17 02:18:47;;;;;;;39.47;4.68;;;;;;;;;;5012673;28;20440;-57
2021/03/17 02:21:14;;;;;;;50.65;4.10;;;;;;;;;;5004108;28;20046;-58
2021/03/17 02:23:59;;;;;;;39.47;4.47;;;;;;;;;;5030541;28;20045;-55
2021/03/17 02:26:25;;;;;;;18.65;3.45;;;;;;;;;;5031449;28;20179;-56
2021/03/17 02:29:19;;;;;;;27.27;3.80;;;;;;;;;;4985586;28;20033;-56
2021/03/17 02:32:05;;;;;;;25.13;3.33;;;;;;;;;;4994845;28;20056;-53
2021/03/17 02:34:34;;;;;;;46.42;5.40;;;;;;;;;;4957111;28;20042;-57
2021/03/17 02:37:03;;;;;;;46.08;5.13;;;;;;;;;;4958197;28;20579;-56
2021/03/17 02:39:41;;;;;;;51.30;6.00;;;;;;;;;;4953387;28;20035;-56
2021/03/17 02:42:09;;;;;;;35.20;5.65;;;;;;;;;;4953825;28;20062;-56
2021/03/17 02:44:42;;;;;;;46.50;6.00;;;;;;;;;;4954270;28;20042;-56
2021/03/17 02:47:08;;;;;;;74.83;7.30;;;;;;;;;;4954701;28;20149;-56
2021/03/17 02:49:36;;;;;;;50.42;6.60;;;;;;;;;;4953634;28;20861;-57
2021/03/17 02:52:03;;;;;;;81.18;6.57;;;;;;;;;;4937413;28;20046;-55
2021/03/17 02:54:29;;;;;;;63.25;6.55;;;;;;;;;;4938448;28;20049;-56
2021/03/17 02:56:56;;;;;;;43.70;5.47;;;;;;;;;;4955948;28;20046;-54
2021/03/17 02:59:24;;;;;;;51.15;7.38;;;;;;;;;;4954775;28;20241;-56
2021/03/17 03:01:51;;;;;;;47.88;5.80;;;;;;;;;;4955159;28;20047;-56
2021/03/17 03:04:17;;;;;;;63.33;6.28;;;;;;;;;;4954476;28;20061;-57
2021/03/17 03:06:45;;;;;;;44.70;6.03;;;;;;;;;;5009092;28;20082;-56
2021/03/17 03:09:14;;;;;;;57.05;5.97;;;;;;;;;;5030421;28;20079;-55
2021/03/17 03:11:40;;;;;;;56.15;6.60;;;;;;;;;;5011256;28;20045;-57
2021/03/17 03:14:06;;;;;;;88.93;8.73;;;;;;;;;;5029513;28;20056;-56
2021/03/17 03:16:33;;;;;;;53.00;7.13;;;;;;;;;;5019312;28;20123;-54
2021/03/17 03:19:00;;;;;;;54.47;6.15;;;;;;;;;;5029740;28;20033;-57
2021/03/17 03:21:27;;;;;;;50.85;7.18;;;;;;;;;;5028906;28;20061;-55
2021/03/17 03:23:53;;;;;;;60.15;7.32;;;;;;;;;;5032515;28;20050;-57
2021/03/17 03:26:19;;;;;;;85.63;10.48;;;;;;;;;;5032298;28;20159;-54
2021/03/17 03:28:49;;;;;;;95.70;9.82;;;;;;;;;;5030281;28;20104;-57
2021/03/17 03:31:15;;;;;;;94.78;9.27;;;;;;;;;;5034248;28;20059;-56
2021/03/17 03:33:42;;;;;;;74.07;9.07;;;;;;;;;;5033441;28;20040;-54
2021/03/17 03:36:08;;;;;;;63.35;8.18;;;;;;;;;;5001999;28;20045;-57
2021/03/17 03:38:34;;;;;;;86.13;8.40;;;;;;;;;;5030483;28;20033;-58
2021/03/17 03:41:00;;;;;;;106.60;11.88;;;;;;;;;;5033030;28;20091;-57
2021/03/17 03:43:26;;;;;;;64.00;8.65;;;;;;;;;;5031294;28;20036;-57
2021/03/17 03:45:52;;;;;;;65.85;7.32;;;;;;;;;;5035501;28;20088;-57
2021/03/17 03:48:19;;;;;;;54.40;7.63;;;;;;;;;;5038233;28;20044;-58
2021/03/17 03:50:47;;;;;;;71.55;8.10;;;;;;;;;;5041808;28;20115;-58
2021/03/17 03:53:17;;;;;;;56.55;7.40;;;;;;;;;;5038113;28;20060;-57
2021/03/17 03:55:46;;;;;;;52.50;6.57;;;;;;;;;;5031580;28;20045;-57
2021/03/17 03:58:13;;;;;;;48.20;7.88;;;;;;;;;;5027423;28;20041;-57
2021/03/17 04:00:41;;;;;;;56.67;6.35;;;;;;;;;;5034984;28;20131;-56
2021/03/17 04:03:07;;;;;;;91.20;9.25;;;;;;;;;;5035121;28;20123;-55
2021/03/17 04:05:38;;;;;;;61.90;7.72;;;;;;;;;;5013143;28;20102;-57
2021/03/17 04:08:09;;;;;;;48.80;7.88;;;;;;;;;;5018849;28;20061;-56
2021/03/17 04:10:37;;;;;;;44.75;7.35;;;;;;;;;;5029524;28;20578;-56
2021/03/17 04:13:04;;;;;;;55.55;7.90;;;;;;;;;;5028381;28;20037;-56
2021/03/17 04:15:32;;;;;;;48.60;7.95;;;;;;;;;;5037366;28;20041;-56
2021/03/17 04:18:01;;;;;;;56.45;7.95;;;;;;;;;;5032195;28;20147;-55
2021/03/17 04:20:31;;;;;;;53.35;8.80;;;;;;;;;;4999186;28;20038;-57
2021/03/17 04:22:58;;;;;;;35.58;7.45;;;;;;;;;;5032316;28;20040;-56
2021/03/17 04:25:24;;;;;;;38.55;7.53;;;;;;;;;;5030155;28;20041;-56
2021/03/17 04:27:52;;;;;;;56.80;7.85;;;;;;;;;;5032899;28;20047;-56
2021/03/17 04:30:19;;;;;;;80.45;10.80;;;;;;;;;;5034647;28;20497;-56
2021/03/17 04:32:46;;;;;;;70.65;8.52;;;;;;;;;;5033219;28;20101;-54
2021/03/17 04:35:13;;;;;;;46.90;8.20;;;;;;;;;;5033285;28;20045;-56
2021/03/17 04:37:41;;;;;;;40.38;8.10;;;;;;;;;;5031734;28;20992;-56
2021/03/17 04:40:07;;;;;;;49.72;8.73;;;;;;;;;;5031807;28;20067;-56
2021/03/17 04:42:34;;;;;;;50.08;8.02;;;;;;;;;;5031522;28;20065;-54
2021/03/17 04:45:00;;;;;;;52.50;8.50;;;;;;;;;;5031925;28;20102;-54
2021/03/17 04:47:26;;;;;;;45.55;8.35;;;;;;;;;;5035642;28;20132;-56
2021/03/17 04:49:54;;;;;;;56.13;9.20;;;;;;;;;;5034227;28;20041;-53
2021/03/17 04:52:20;;;;;;;50.50;7.60;;;;;;;;;;5035137;28;20091;-56
2021/03/17 04:54:46;;;;;;;42.72;8.38;;;;;;;;;;5033064;28;20058;-56
2021/03/17 04:57:16;;;;;;;35.53;7.10;;;;;;;;;;5022201;28;20422;-57
2021/03/17 04:59:42;;;;;;;41.60;6.47;;;;;;;;;;5029997;28;20056;-54
2021/03/17 05:02:09;;;;;;;50.00;7.93;;;;;;;;;;5033304;28;20037;-56
2021/03/17 05:04:36;;;;;;;46.95;6.95;;;;;;;;;;5030825;28;20071;-56
2021/03/17 05:07:02;;;;;;;48.15;8.77;;;;;;;;;;5033385;28;20052;-56
2021/03/17 05:09:28;;;;;;;52.30;7.07;;;;;;;;;;5033031;28;20065;-57
2021/03/17 05:11:55;;;;;;;49.63;6.90;;;;;;;;;;5032315;28;20231;-54
2021/03/17 05:14:21;;;;;;;45.10;6.45;;;;;;;;;;5033112;28;20043;-56
2021/03/17 05:16:47;;;;;;;44.55;6.53;;;;;;;;;;5032851;28;20068;-57
2021/03/17 05:19:14;;;;;;;44.67;7.22;;;;;;;;;;5033504;28;20033;-56
2021/03/17 05:21:41;;;;;;;61.47;6.60;;;;;;;;;;5035395;28;20047;-55
2021/03/17 05:24:07;;;;;;;44.85;6.50;;;;;;;;;;5035257;28;20036;-56
2021/03/17 05:26:34;;;;;;;40.50;6.63;;;;;;;;;;5032520;28;20045;-56
2021/03/17 05:29:00;;;;;;;41.60;6.40;;;;;;;;;;5033913;28;20034;-56
2021/03/17 05:31:27;;;;;;;37.72;6.40;;;;;;;;;;5032376;28;20037;-55
2021/03/17 05:33:52;;;;;;;72.13;8.93;;;;;;;;;;5033686;28;20059;-56
2021/03/17 05:36:18;;;;;;;43.53;5.82;;;;;;;;;;5032602;28;20037;-56
2021/03/17 05:38:44;;;;;;;50.30;6.78;;;;;;;;;;5030005;28;20045;-56
2021/03/17 05:41:10;;;;;;;40.40;5.93;;;;;;;;;;5034399;28;20048;-56
2021/03/17 05:43:37;;;;;;;47.20;6.60;;;;;;;;;;5032158;28;20559;-56
2021/03/17 05:46:06;;;;;;;40.35;6.00;;;;;;;;;;5033040;28;20053;-56
2021/03/17 05:48:32;;;;;;;48.33;6.97;;;;;;;;;;5029429;28;20044;-57
2021/03/17 05:50:59;;;;;;;41.67;5.47;;;;;;;;;;5030277;28;20045;-53
2021/03/17 05:53:26;;;;;;;45.08;6.40;;;;;;;;;;5028306;28;20040;-57
2021/03/17 05:55:52;;;;;;;48.13;6.78;;;;;;;;;;5029739;28;20042;-55
2021/03/17 05:58:19;;;;;;;51.28;8.52;;;;;;;;;;5029696;28;20615;-56
2021/03/17 06:00:45;;;;;;;55.55;6.50;;;;;;;;;;5030755;28;20057;-57
2021/03/17 06:03:12;;;;;;;35.78;6.05;;;;;;;;;;5032610;28;20075;-55
2021/03/17 06:05:37;;;;;;;48.42;6.95;;;;;;;;;;5030137;28;20060;-54
2021/03/17 06:08:05;;;;;;;42.65;5.85;;;;;;;;;;5030783;28;20073;-57
2021/03/17 06:10:31;;;;;;;52.25;6.28;;;;;;;;;;5028670;28;20033;-56
2021/03/17 06:12:58;;;;;;;39.90;6.47;;;;;;;;;;4993233;28;20429;-57
2021/03/17 06:15:25;;;;;;;33.40;5.38;;;;;;;;;;5030187;28;20077;-57
2021/03/17 06:17:57;;;;;;;39.00;5.97;;;;;;;;;;5031474;28;20040;-57
2021/03/17 06:20:23;;;;;;;35.85;5.88;;;;;;;;;;5029998;28;20033;-57
2021/03/17 06:22:49;;;;;;;25.63;4.68;;;;;;;;;;5031664;28;20041;-56
2021/03/17 06:25:15;;;;;;;59.85;7.10;;;;;;;;;;5030863;28;20595;-56
2021/03/17 06:27:42;;;;;;;43.83;5.82;;;;;;;;;;5029661;28;20136;-56
2021/03/17 06:30:09;;;;;;;57.05;6.13;;;;;;;;;;5031345;28;20102;-55
2021/03/17 06:32:35;;;;;;;32.25;5.07;;;;;;;;;;5027990;28;20084;-53
2021/03/17 06:35:01;;;;;;;44.00;5.00;;;;;;;;;;5031356;28;20078;-55
2021/03/17 06:37:34;;;;;;;43.25;5.18;;;;;;;;;;5031693;28;20642;-56
2021/03/17 06:40:00;;;;;;;41.72;6.15;;;;;;;;;;5033011;28;20052;-56
2021/03/17 06:42:38;;;;;;;43.03;6.22;;;;;;;;;;5027225;28;20037;-57
2021/03/17 06:45:04;;;;;;;28.85;4.80;;;;;;;;;;5033999;28;20064;-53
2021/03/17 06:47:30;;;;;;;26.40;5.13;;;;;;;;;;5032421;28;20060;-56
2021/03/17 06:49:55;;;;;;;30.77;4.72;;;;;;;;;;5032993;28;20032;-55
2021/03/17 06:52:32;;;;;;;30.67;5.38;;;;;;;;;;5030700;28;20048;-54
2021/03/17 06:55:05;;;;;;;27.75;5.60;;;;;;;;;;5026541;28;20052;-56
2021/03/17 06:57:31;;;;;;;20.90;4.00;;;;;;;;;;5024546;28;20045;-56
2021/03/17 07:00:15;;;;;;;23.77;5.15;;;;;;;;;;5032956;28;20044;-55
2021/03/17 07:02:41;;;;;;;31.83;6.32;;;;;;;;;;5025593;28;20037;-55
2021/03/17 07:05:08;;;;;;;35.53;4.63;;;;;;;;;;5021733;28;20151;-55
2021/03/17 07:07:54;;;;;;;32.10;4.93;;;;;;;;;;5023632;28;20146;-57
2021/03/17 07:10:27;;;;;;;32.70;4.78;;;;;;;;;;5018434;28;20056;-54
2021/03/17 07:12:53;;;;;;;28.75;3.92;;;;;;;;;;5031879;28;20071;-57
2021/03/17 07:15:19;;;;;;;34.22;4.20;;;;;;;;;;5031009;28;20149;-55
2021/03/17 07:17:45;;;;;;;39.67;4.85;;;;;;;;;;5031588;28;20040;-53
2021/03/17 07:20:11;;;;;;;34.60;5.00;;;;;;;;;;5032245;28;20033;-55
2021/03/17 07:22:37;;;;;;;28.45;5.10;;;;;;;;;;5030205;28;20055;-55
2021/03/17 07:25:04;;;;;;;22.90;4.68;;;;;;;;;;5030195;28;20067;-54
2021/03/17 07:27:32;;;;;;;19.33;4.05;;;;;;;;;;5030638;28;20087;-55
2021/03/17 07:29:58;;;;;;;31.95;5.32;;;;;;;;;;5027501;28;20029;-56
2021/03/17 07:32:27;;;;;;;33.58;4.60;;;;;;;;;;5034743;28;20049;-56
2021/03/17 07:34:53;;;;;;;35.60;4.68;;;;;;;;;;5036887;28;20040;-55
2021/03/17 07:37:25;;;;;;;24.75;4.47;;;;;;;;;;5029020;28;20052;-54
2021/03/17 07:39:51;;;;;;;36.92;5.05;;;;;;;;;;5037269;28;20044;-56
2021/03/17 07:42:20;;;;;;;24.77;3.80;;;;;;;;;;5028314;28;20041;-56
2021/03/17 07:44:46;;;;;;;27.60;3.90;;;;;;;;;;5034683;28;20033;-54
2021/03/17 07:47:12;;;;;;;32.65;4.53;;;;;;;;;;5034606;28;20060;-55
2021/03/17 07:49:39;;;;;;;27.95;4.85;;;;;;;;;;5033553;28;20417;-55
2021/03/17 07:52:06;;;;;;;32.40;5.22;;;;;;;;;;5035319;28;20045;-55
2021/03/17 07:54:36;;;;;;;31.15;4.05;;;;;;;;;;5034924;28;20072;-55
2021/03/17 07:57:06;;;;;;;24.13;4.38;;;;;;;;;;5023805;28;20052;-54
2021/03/17 07:59:33;;;;;;;23.52;4.78;;;;;;;;;;5021547;28;20069;-56
2021/03/17 08:01:59;;;;;;;22.42;4.25;;;;;;;;;;5019879;28;20052;-56
2021/03/17 08:04:26;;;;;;;26.35;4.68;;;;;;;;;;5029533;28;20044;-54
2021/03/17 08:06:54;;;;;;;26.35;4.03;;;;;;;;;;5029539;28;20080;-54
2021/03/17 08:09:20;;;;;;;22.08;4.00;;;;;;;;;;5028592;28;20049;-55
2021/03/17 08:11:46;;;;;;;26.65;4.00;;;;;;;;;;5035051;28;20042;-55
2021/03/17 08:14:14;;;;;;;19.77;4.05;;;;;;;;;;5036397;28;20630;-55
2021/03/17 08:16:40;;;;;;;15.93;3.83;;;;;;;;;;5034965;28;20072;-56
2021/03/17 08:19:19;;;;;;;26.77;6.05;;;;;;;;;;5035669;28;20049;-55
2021/03/17 08:21:46;;;;;;;20.08;3.70;;;;;;;;;;5029136;28;20075;-54
2021/03/17 08:24:38;;;;;;;18.00;4.90;;;;;;;;;;5035133;28;20033;-54
2021/03/17 08:27:07;;;;;;;16.50;3.78;;;;;;;;;;5026095;28;20051;-55
2021/03/17 08:29:36;;;;;;;17.05;3.75;;;;;;;;;;5034104;28;20045;-56
2021/03/17 08:32:02;;;;;;;19.85;4.10;;;;;;;;;;5033291;28;20037;-56
2021/03/17 08:34:29;;;;;;;15.77;3.70;;;;;;;;;;5033262;28;20496;-55
2021/03/17 08:37:02;;;;;;;22.45;4.28;;;;;;;;;;5035193;28;20045;-55
2021/03/17 08:39:35;;;;;;;15.93;4.10;;;;;;;;;;5033133;28;20034;-54
2021/03/17 08:42:01;;;;;;;40.15;5.20;;;;;;;;;;5033459;28;22308;-54
2021/03/17 08:44:28;;;;;;;26.98;4.18;;;;;;;;;;5032809;28;20044;-54
2021/03/17 08:46:55;;;;;;;19.80;3.92;;;;;;;;;;5033890;28;20091;-54
2021/03/17 08:49:29;;;;;;;28.05;4.65;;;;;;;;;;5033791;28;20313;-54
2021/03/17 08:51:54;;;;;;;22.08;4.60;;;;;;;;;;5009650;28;20652;-53
2021/03/17 08:54:30;;;;;;;17.70;3.45;;;;;;;;;;5013467;28;20042;-52
2021/03/17 08:56:59;;;;;;;18.35;3.80;;;;;;;;;;5004683;28;20041;-53
2021/03/17 08:59:47;;;;;;;12.30;3.17;;;;;;;;;;5013688;28;20037;-54
2021/03/17 09:02:19;;;;;;;15.35;3.78;;;;;;;;;;5015114;28;20073;-55
2021/03/17 09:04:45;;;;;;;21.52;4.35;;;;;;;;;;5013152;28;20054;-55
2021/03/17 09:07:11;;;;;;;21.30;4.03;;;;;;;;;;5015369;28;20136;-55
2021/03/17 09:09:52;;;;;;;22.17;3.47;;;;;;;;;;4995510;28;20148;-56
2021/03/17 09:12:27;;;;;;;20.73;3.28;;;;;;;;;;5015767;28;20132;-54
2021/03/17 09:15:14;;;;;;;14.00;3.60;;;;;;;;;;5017348;28;20038;-57
2021/03/17 09:17:56;;;;;;;23.65;4.28;;;;;;;;;;5012853;28;20454;-56
2021/03/17 09:20:28;;;;;;;15.48;4.03;;;;;;;;;;5012764;28;20046;-55
2021/03/17 09:23:01;;;;;;;20.63;4.40;;;;;;;;;;5015180;28;20038;-55
2021/03/17 09:25:27;;;;;;;22.10;4.00;;;;;;;;;;5012024;28;20195;-57
2021/03/17 09:28:03;;;;;;;14.23;3.65;;;;;;;;;;4992942;28;20188;-54
2021/03/17 09:30:31;;;;;;;17.25;4.00;;;;;;;;;;5014014;28;20042;-57
2021/03/17 09:33:03;;;;;;;18.00;3.85;;;;;;;;;;5014526;28;20139;-56
2021/03/17 09:35:29;;;;;;;19.30;3.67;;;;;;;;;;5012374;28;20029;-56
2021/03/17 09:38:03;;;;;;;22.55;3.55;;;;;;;;;;5014664;28;20470;-56
2021/03/17 09:40:28;;;;;;;;;;;;;;;;;;5015354;28;20041;-54
2021/03/17 09:42:54;;;;;;;11.73;2.97;;;;;;;;;;5013596;28;19921;-54
2021/03/17 09:45:24;;;;;;;13.77;3.58;;;;;;;;;;5012867;28;20033;-56
2021/03/17 09:47:54;;;;;;;17.98;4.10;;;;;;;;;;5014966;28;20061;-55
2021/03/17 09:50:20;;;;;;;13.50;3.90;;;;;;;;;;5016303;28;20045;-54
2021/03/17 09:52:46;;;;;;;17.98;3.88;;;;;;;;;;5032560;28;20055;-55
2021/03/17 09:55:27;;;;;;;17.30;4.00;;;;;;;;;;5033359;28;20075;-55
2021/03/17 09:57:57;;;;;;;18.90;3.78;;;;;;;;;;5032797;28;20047;-52
2021/03/17 10:00:24;;;;;;;20.50;3.75;;;;;;;;;;5032021;28;20047;-53
2021/03/17 10:02:50;;;;;;;18.80;3.72;;;;;;;;;;5036433;28;20524;-52
2021/03/17 10:05:15;;;;;;;14.07;3.28;;;;;;;;;;5032888;28;20033;-53
2021/03/17 10:07:42;;;;;;;12.88;3.08;;;;;;;;;;5033248;28;20091;-53
2021/03/17 10:10:08;;;;;;;12.77;3.10;;;;;;;;;;5035194;28;20049;-56
2021/03/17 10:12:34;;;;;;;14.73;3.60;;;;;;;;;;5034980;28;20060;-56
2021/03/17 10:15:07;;;;;;;12.45;3.38;;;;;;;;;;5034921;28;20124;-55
2021/03/17 10:17:33;;;;;;;9.68;3.10;;;;;;;;;;5033526;28;20501;-54
2021/03/17 10:20:00;;;;;;;14.95;4.10;;;;;;;;;;5033068;28;20504;-56
2021/03/17 10:22:27;;;;;;;11.73;3.35;;;;;;;;;;5031367;28;20039;-53
2021/03/17 10:24:57;;;;;;;14.95;3.55;;;;;;;;;;5033311;28;20047;-55
2021/03/17 10:27:27;;;;;;;11.85;3.25;;;;;;;;;;5033018;28;20132;-54
2021/03/17 10:29:59;;;;;;;9.95;3.40;;;;;;;;;;5035226;28;20041;-54
2021/03/17 10:32:25;;;;;;;9.38;3.65;;;;;;;;;;5032010;28;20047;-53
2021/03/17 10:34:51;;;;;;;10.95;3.60;;;;;;;;;;5033105;28;20751;-54
2021/03/17 10:37:21;;;;;;;15.07;3.45;;;;;;;;;;5033549;28;20589;-56
2021/03/17 10:39:48;;;;;;;22.92;3.42;;;;;;;;;;5032723;28;20037;-54
2021/03/17 10:42:22;;;;;;;9.90;3.45;;;;;;;;;;5033713;28;20033;-55
2021/03/17 10:44:47;;;;;;;;;;;;;;;;;;5030940;28;20089;-55
2021/03/17 10:47:13;;;;;;;12.05;3.60;;;;;;;;;;5032360;28;20027;-55
2021/03/17 10:49:45;;;;;;;17.42;3.80;;;;;;;;;;5030973;28;21128;-55
2021/03/17 10:52:11;;;;;;;23.40;3.67;;;;;;;;;;5016730;28;20498;-56
2021/03/17 10:54:42;;;;;;;14.02;3.30;;;;;;;;;;5015642;28;20048;-53
2021/03/17 10:57:09;;;;;;;13.13;3.60;;;;;;;;;;5016641;28;20045;-55
2021/03/17 10:59:36;;;;;;;9.43;3.10;;;;;;;;;;5015131;28;20556;-53
2021/03/17 11:02:21;;;;;;;13.30;4.15;;;;;;;;;;5002653;28;20090;-56
2021/03/17 11:05:07;;;;;;;13.30;3.30;;;;;;;;;;5017179;28;20083;-52
2021/03/17 11:07:52;;;;;;;9.93;3.70;;;;;;;;;;5014945;28;20144;-56
2021/03/17 11:10:28;;;;;;;12.25;3.70;;;;;;;;;;5017987;28;20045;-55
2021/03/17 11:12:54;;;;;;;17.30;3.80;;;;;;;;;;5015892;28;20417;-57
2021/03/17 11:15:27;;;;;;;24.60;4.38;;;;;;;;;;5015956;28;20084;-56
2021/03/17 11:17:54;;;;;;;17.63;3.78;;;;;;;;;;5015818;28;20118;-56
2021/03/17 11:20:20;;;;;;;9.98;3.97;;;;;;;;;;5016861;28;20042;-52
2021/03/17 11:22:46;;;;;;;14.07;3.60;;;;;;;;;;5016522;28;20569;-56
2021/03/17 11:25:12;;;;;;;12.20;3.30;;;;;;;;;;5016834;28;20038;-53
2021/03/17 11:27:39;;;;;;;24.02;3.75;;;;;;;;;;5014461;28;20137;-55
2021/03/17 11:30:07;;;;;;;12.13;3.22;;;;;;;;;;5015757;28;20042;-56
2021/03/17 11:32:33;;;;;;;10.70;3.15;;;;;;;;;;5015995;28;20486;-53
2021/03/17 11:34:59;;;;;;;18.52;3.55;;;;;;;;;;5015761;28;20135;-56
2021/03/17 11:37:25;;;;;;;20.90;3.78;;;;;;;;;;5013948;28;20045;-56
2021/03/17 11:39:50;;;;;;;7.60;3.00;;;;;;;;;;5016793;28;20056;-55
2021/03/17 11:42:16;;;;;;;24.50;4.55;;;;;;;;;;4994398;28;20064;-55
2021/03/17 11:44:45;;;;;;;18.90;3.30;;;;;;;;;;5014022;28;20045;-55
2021/03/17 11:47:11;;;;;;;13.93;4.93;;;;;;;;;;5015903;28;20056;-52
2021/03/17 11:49:37;;;;;;;14.80;3.40;;;;;;;;;;5013597;28;20057;-55
2021/03/17 11:52:03;;;;;;;13.20;3.05;;;;;;;;;;5027754;28;20029;-56
2021/03/17 11:54:29;;;;;;;17.35;3.83;;;;;;;;;;5015023;28;20051;-54
2021/03/17 11:56:56;;;;;;;12.73;3.22;;;;;;;;;;5015106;28;20052;-54
2021/03/17 11:59:22;;;;;;;13.13;3.30;;;;;;;;;;5030931;28;20037;-55
2021/03/17 12:01:48;;;;;;;18.65;3.55;;;;;;;;;;5033266;28;20052;-55
2021/03/17 12:04:14;;;;;;;22.40;4.15;;;;;;;;;;5031890;28;20041;-55
2021/03/17 12:06:40;;;;;;;12.02;3.53;;;;;;;;;;5031596;28;20055;-53
2021/03/17 12:09:05;;;;;;;10.93;3.90;;;;;;;;;;5034152;28;21020;-54
2021/03/17 12:11:33;;;;;;;12.98;3.00;;;;;;;;;;5029815;28;20041;-54
2021/03/17 12:13:59;;;;;;;10.52;3.20;;;;;;;;;;5030703;28;20184;-54
2021/03/17 12:16:25;;;;;;;18.13;3.75;;;;;;;;;;5015721;28;20354;-52
2021/03/17 12:18:51;;;;;;;17.33;3.47;;;;;;;;;;5035401;28;20041;-54
2021/03/17 12:21:17;;;;;;;19.17;3.40;;;;;;;;;;5036377;28;20038;-53
2021/03/17 12:23:43;;;;;;;12.77;3.40;;;;;;;;;;5035308;28;20484;-54
2021/03/17 12:26:09;;;;;;;16.88;3.60;;;;;;;;;;5035983;28;20041;-54
2021/03/17 12:28:35;;;;;;;17.40;4.18;;;;;;;;;;5034746;28;20064;-52
2021/03/17 12:31:01;;;;;;;19.20;4.28;;;;;;;;;;5036714;28;20550;-55
2021/03/17 12:33:27;;;;;;;34.08;4.15;;;;;;;;;;5033583;28;20037;-53
2021/03/17 12:35:53;;;;;;;16.15;4.07;;;;;;;;;;5011980;28;20048;-55
2021/03/17 12:38:19;;;;;;;30.60;4.60;;;;;;;;;;5035479;28;20128;-55
2021/03/17 12:40:45;;;;;;;22.80;4.07;;;;;;;;;;5034205;28;20079;-55
2021/03/17 12:43:11;;;;;;;15.75;3.17;;;;;;;;;;5033044;28;20045;-53
2021/03/17 12:45:37;;;;;;;20.20;3.92;;;;;;;;;;5033740;28;20431;-55
2021/03/17 12:48:03;;;;;;;13.10;3.53;;;;;;;;;;5034851;28;20055;-56
2021/03/17 12:50:28;;;;;;;14.90;3.25;;;;;;;;;;5034344;28;20084;-55
2021/03/17 12:52:55;;;;;;;18.02;3.42;;;;;;;;;;5036217;28;20045;-54
2021/03/17 12:55:21;;;;;;;27.38;5.28;;;;;;;;;;5035956;28;20072;-54
2021/03/17 12:57:47;;;;;;;21.15;4.28;;;;;;;;;;5038633;28;20049;-56
2021/03/17 13:00:14;;;;;;;19.08;3.88;;;;;;;;;;5039169;28;20033;-55
2021/03/17 13:02:40;;;;;;;33.83;4.78;;;;;;;;;;5035332;28;20040;-53
2021/03/17 13:05:07;;;;;;;25.17;4.72;;;;;;;;;;5015526;28;20033;-55
2021/03/17 13:07:34;;;;;;;17.25;3.58;;;;;;;;;;5035856;28;20049;-56
2021/03/17 13:10:00;;;;;;;30.95;4.93;;;;;;;;;;5039424;28;20041;-56
2021/03/17 13:12:26;;;;;;;35.28;5.45;;;;;;;;;;5037195;28;20095;-55
2021/03/17 13:14:52;;;;;;;30.63;5.28;;;;;;;;;;5036098;28;20498;-55
2021/03/17 13:17:19;;;;;;;23.73;4.70;;;;;;;;;;5035799;28;20045;-54
2021/03/17 13:19:45;;;;;;;37.25;5.15;;;;;;;;;;5037826;28;20080;-54
2021/03/17 13:22:12;;;;;;;52.05;6.07;;;;;;;;;;5035871;28;20156;-54
2021/03/17 13:24:37;;;;;;;40.28;5.25;;;;;;;;;;5032942;28;20045;-52
2021/03/17 13:27:03;;;;;;;37.92;5.38;;;;;;;;;;5035873;28;20049;-55
2021/03/17 13:29:29;;;;;;;32.03;5.95;;;;;;;;;;5035548;28;20048;-55
2021/03/17 13:31:55;;;;;;;31.80;5.20;;;;;;;;;;5031861;28;20559;-55
2021/03/17 13:34:21;;;;;;;48.50;5.50;;;;;;;;;;5035813;28;20481;-55
2021/03/17 13:36:47;;;;;;;47.15;7.72;;;;;;;;;;5036454;28;20049;-53
2021/03/17 13:39:13;;;;;;;31.58;5.15;;;;;;;;;;5039168;28;20044;-56
2021/03/17 13:41:39;;;;;;;47.53;6.93;;;;;;;;;;5020877;28;20045;-54
2021/03/17 13:44:05;;;;;;;39.30;4.78;;;;;;;;;;5039111;28;20056;-53
2021/03/17 13:46:31;;;;;;;30.40;4.97;;;;;;;;;;5041065;28;20056;-55
2021/03/17 13:48:56;;;;;;;35.50;4.07;;;;;;;;;;5037582;28;20041;-56
2021/03/17 13:51:23;;;;;;;36.45;4.72;;;;;;;;;;5038454;28;20060;-53
2021/03/17 13:53:49;;;;;;;26.38;4.38;;;;;;;;;;5040104;28;20068;-54
2021/03/17 13:56:16;;;;;;;44.10;9.15;;;;;;;;;;5043665;28;20045;-54
2021/03/17 13:58:41;;;;;;;28.20;4.60;;;;;;;;;;5039331;28;20045;-55
2021/03/17 14:01:07;;;;;;;28.73;6.35;;;;;;;;;;5041198;28;20033;-56
2021/03/17 14:03:33;;;;;;;48.40;5.72;;;;;;;;;;5039312;28;20060;-55
2021/03/17 14:05:59;;;;;;;27.73;5.47;;;;;;;;;;5040757;28;20055;-55
2021/03/17 14:08:25;;;;;;;38.35;5.55;;;;;;;;;;5040647;28;20053;-55
2021/03/17 14:10:51;;;;;;;39.25;4.80;;;;;;;;;;5041804;28;20044;-56
2021/03/17 14:13:17;;;;;;;23.92;4.47;;;;;;;;;;5038022;28;20064;-53
2021/03/17 14:15:43;;;;;;;32.13;4.90;;;;;;;;;;5038983;28;20068;-54
2021/03/17 14:18:10;;;;;;;38.97;4.60;;;;;;;;;;5036880;28;20509;-51
2021/03/17 14:20:36;;;;;;;21.02;4.07;;;;;;;;;;5033379;28;20124;-52
2021/03/17 14:23:02;;;;;;;19.95;4.03;;;;;;;;;;5035649;28;20219;-54
2021/03/17 14:25:29;;;;;;;26.30;4.40;;;;;;;;;;5033010;28;20116;-55
2021/03/17 14:27:55;;;;;;;27.88;4.93;;;;;;;;;;5033594;28;20049;-54
2021/03/17 14:30:22;;;;;;;28.00;3.83;;;;;;;;;;5020010;28;20094;-52
2021/03/17 14:32:48;;;;;;;19.95;3.95;;;;;;;;;;5034719;28;20040;-55
2021/03/17 14:35:15;;;;;;;19.95;4.13;;;;;;;;;;5031901;28;20040;-53